createdAt,value
2023-02-20T00:01:39.653Z,7.00
2023-02-20T00:04:06.394Z,7.00
2023-02-20T00:06:33.146Z,7.00
2023-02-20T00:08:59.843Z,7.10
2023-02-20T00:11:33.958Z,7.00
2023-02-20T00:14:00.744Z,7.10
2023-02-20T00:16:27.537Z,7.10
2023-02-20T00:18:54.259Z,7.00
2023-02-20T00:21:21.044Z,7.00
2023-02-20T00:23:47.758Z,7.10
2023-02-20T00:26:15.577Z,7.10
2023-02-20T00:28:46.641Z,7.10
2023-02-20T00:31:23.904Z,7.10
2023-02-20T00:33:50.635Z,7.10
2023-02-20T00:36:22.118Z,7.10
2023-02-20T00:38:48.848Z,7.10
2023-02-20T00:41:17.434Z,7.10
2023-02-20T00:43:44.257Z,7.10
2023-02-20T00:46:14.273Z,7.10
2023-02-20T00:48:41.286Z,7.00
2023-02-20T00:51:08.091Z,7.00
2023-02-20T00:53:34.837Z,7.00
2023-02-20T00:56:01.565Z,7.00
2023-02-20T00:58:28.418Z,7.00
2023-02-20T01:00:55.166Z,7.10
2023-02-20T01:03:21.873Z,7.10
2023-02-20T01:05:48.674Z,7.00
2023-02-20T01:08:15.456Z,7.00
2023-02-20T01:10:42.247Z,7.00
2023-02-20T01:13:09.278Z,7.00
2023-02-20T01:15:36.155Z,6.90
2023-02-20T01:18:06.006Z,6.90
2023-02-20T01:20:33.143Z,6.90
2023-02-20T01:23:02.749Z,6.90
2023-02-20T01:25:30.351Z,6.90
2023-02-20T01:27:57.255Z,6.90
2023-02-20T01:30:26.465Z,6.80
2023-02-20T01:32:53.304Z,6.80
2023-02-20T01:35:20.262Z,6.80
2023-02-20T01:37:47.019Z,6.80
2023-02-20T01:40:24.431Z,6.80
2023-02-20T01:42:51.177Z,6.80
2023-02-20T01:45:23.982Z,6.80
2023-02-20T01:47:58.203Z,6.80
2023-02-20T01:50:33.419Z,6.80
2023-02-20T01:53:08.220Z,6.80
2023-02-20T01:56:00.045Z,6.80
2023-02-20T01:58:43.657Z,6.80
2023-02-20T02:01:12.859Z,6.90
2023-02-20T02:03:47.754Z,6.90
2023-02-20T02:06:16.655Z,6.90
2023-02-20T02:08:47.350Z,6.90
2023-02-20T02:11:25.337Z,6.90
2023-02-20T02:13:54.580Z,6.90
2023-02-20T02:17:17.344Z,7.00
2023-02-20T02:20:20.000Z,7.00
2023-02-20T02:23:44.230Z,7.00
2023-02-20T02:27:07.252Z,7.10
2023-02-20T02:30:01.026Z,7.10
2023-02-20T02:33:18.651Z,7.10
2023-02-20T02:36:43.732Z,7.10
2023-02-20T02:39:39.665Z,7.10
2023-02-20T02:42:49.415Z,7.10
2023-02-20T02:45:56.699Z,7.10
2023-02-20T02:48:50.983Z,7.10
2023-02-20T02:51:28.148Z,7.20
2023-02-20T02:54:16.999Z,7.20
2023-02-20T02:56:47.688Z,7.20
2023-02-20T02:59:33.853Z,7.20
2023-02-20T03:02:07.451Z,7.20
2023-02-20T03:04:37.011Z,7.20
2023-02-20T03:07:13.157Z,7.20
2023-02-20T03:10:09.333Z,7.20
2023-02-20T03:12:45.461Z,7.20
2023-02-20T03:15:37.712Z,7.30
2023-02-20T03:18:20.356Z,7.30
2023-02-20T03:20:58.938Z,7.30
2023-02-20T03:23:33.572Z,7.30
2023-02-20T03:26:13.248Z,7.30
2023-02-20T03:28:51.341Z,7.30
2023-02-20T03:31:27.713Z,7.30
2023-02-20T03:34:46.921Z,7.50
2023-02-20T03:37:38.974Z,7.40
2023-02-20T03:40:30.331Z,7.40
2023-02-20T03:43:24.447Z,7.40
2023-02-20T03:46:02.347Z,7.40
2023-02-20T03:48:56.904Z,7.40
2023-02-20T03:51:24.948Z,7.40
2023-02-20T03:53:53.108Z,7.40
2023-02-20T03:56:32.543Z,7.50
2023-02-20T03:59:07.500Z,7.50
2023-02-20T04:01:39.441Z,7.50
2023-02-20T04:04:10.511Z,7.50
2023-02-20T04:06:41.223Z,7.50
2023-02-20T04:09:16.680Z,7.50
2023-02-20T04:12:01.075Z,7.50
2023-02-20T04:14:32.344Z,7.50
2023-02-20T04:17:06.927Z,7.50
2023-02-20T04:19:34.555Z,7.60
2023-02-20T04:22:06.742Z,7.50
2023-02-20T04:24:52.314Z,7.60
2023-02-20T04:27:22.097Z,7.60
2023-02-20T04:29:49.198Z,7.60
2023-02-20T04:32:16.013Z,7.60
2023-02-20T04:34:43.042Z,7.60
2023-02-20T04:37:28.070Z,7.60
2023-02-20T04:39:54.901Z,7.60
2023-02-20T04:42:21.765Z,7.60
2023-02-20T04:44:48.626Z,7.70
2023-02-20T04:47:18.383Z,7.60
2023-02-20T04:49:55.563Z,7.70
2023-02-20T04:52:28.707Z,7.70
2023-02-20T04:54:55.442Z,7.70
2023-02-20T04:57:22.419Z,7.70
2023-02-20T04:59:49.295Z,7.70
2023-02-20T05:02:17.378Z,7.80
2023-02-20T05:04:44.215Z,7.80
2023-02-20T05:07:13.604Z,7.80
2023-02-20T05:10:01.487Z,7.80
2023-02-20T05:12:28.368Z,7.80
2023-02-20T05:14:55.808Z,7.80
2023-02-20T05:17:22.870Z,7.80
2023-02-20T05:19:49.649Z,7.80
2023-02-20T05:22:19.041Z,7.80
2023-02-20T05:24:48.248Z,7.80
2023-02-20T05:27:17.802Z,7.80
2023-02-20T05:29:50.333Z,7.80
2023-02-20T05:32:18.571Z,7.80
2023-02-20T05:34:45.521Z,7.80
2023-02-20T05:37:17.335Z,7.90
2023-02-20T05:39:45.484Z,7.90
2023-02-20T05:42:12.347Z,7.90
2023-02-20T05:44:39.413Z,7.90
2023-02-20T05:47:12.358Z,7.90
2023-02-20T05:49:39.236Z,7.90
2023-02-20T05:52:13.911Z,7.90
2023-02-20T05:54:42.210Z,8.00
2023-02-20T05:57:12.493Z,8.00
2023-02-20T05:59:39.597Z,8.00
2023-02-20T06:02:08.781Z,8.00
2023-02-20T06:04:37.575Z,8.00
2023-02-20T06:07:10.407Z,8.00
2023-02-20T06:09:37.177Z,8.00
2023-02-20T06:12:07.253Z,8.10
2023-02-20T06:14:34.482Z,8.10
2023-02-20T06:17:01.294Z,8.10
2023-02-20T06:19:28.178Z,8.10
2023-02-20T06:22:03.397Z,8.10
2023-02-20T06:24:30.274Z,8.10
2023-02-20T06:27:01.286Z,8.10
2023-02-20T06:29:29.075Z,8.10
2023-02-20T06:32:00.105Z,8.10
2023-02-20T06:34:31.494Z,8.10
2023-02-20T06:36:58.428Z,8.10
2023-02-20T06:39:25.213Z,8.10
2023-02-20T06:41:54.480Z,8.00
2023-02-20T06:44:21.608Z,8.00
2023-02-20T06:46:48.815Z,8.00
2023-02-20T06:49:15.814Z,8.10
2023-02-20T06:51:45.555Z,8.00
2023-02-20T06:54:14.523Z,8.00
2023-02-20T06:56:41.302Z,8.00
2023-02-20T06:59:15.053Z,8.00
2023-02-20T07:01:43.939Z,8.00
2023-02-20T07:04:19.976Z,8.00
2023-02-20T07:06:47.357Z,8.00
2023-02-20T07:09:22.645Z,8.10
2023-02-20T07:11:50.890Z,8.00
2023-02-20T07:14:17.682Z,8.00
2023-02-20T07:16:44.494Z,8.10
2023-02-20T07:19:11.240Z,8.10
2023-02-20T07:21:38.302Z,8.10
2023-02-20T07:24:06.047Z,8.10
2023-02-20T07:26:33.175Z,8.10
2023-02-20T07:29:02.129Z,8.10
2023-02-20T07:31:31.189Z,8.10
2023-02-20T07:33:59.387Z,8.10
2023-02-20T07:36:26.301Z,8.20
2023-02-20T07:39:01.618Z,8.10
2023-02-20T07:41:34.786Z,8.20
2023-02-20T07:44:01.843Z,8.20
2023-02-20T07:46:33.804Z,8.10
2023-02-20T07:49:03.707Z,8.20
2023-02-20T07:51:32.685Z,8.20
2023-02-20T07:54:02.568Z,8.20
2023-02-20T07:56:30.564Z,8.20
2023-02-20T07:58:59.257Z,8.20
2023-02-20T08:01:27.392Z,8.30
2023-02-20T08:03:54.181Z,8.30
2023-02-20T08:06:21.051Z,8.30
2023-02-20T08:08:52.244Z,8.30
2023-02-20T08:11:21.863Z,8.30
2023-02-20T08:13:49.497Z,8.30
2023-02-20T08:16:16.909Z,8.30
2023-02-20T08:18:45.050Z,8.40
2023-02-20T08:21:22.335Z,8.40
2023-02-20T08:23:49.545Z,8.50
2023-02-20T08:26:19.737Z,8.50
2023-02-20T08:28:54.299Z,8.40
2023-02-20T08:31:31.752Z,8.40
2023-02-20T08:33:59.703Z,8.50
2023-02-20T08:36:26.834Z,8.50
2023-02-20T08:39:00.292Z,8.50
2023-02-20T08:41:27.471Z,8.50
2023-02-20T08:43:55.296Z,8.60
2023-02-20T08:46:22.561Z,8.60
2023-02-20T08:48:49.412Z,8.60
2023-02-20T08:51:32.419Z,8.60
2023-02-20T08:53:59.250Z,8.70
2023-02-20T08:56:25.989Z,8.70
2023-02-20T08:58:53.814Z,8.60
2023-02-20T09:01:21.816Z,8.70
2023-02-20T09:03:49.197Z,8.70
2023-02-20T09:06:15.932Z,8.70
2023-02-20T09:08:42.766Z,8.70
2023-02-20T09:11:11.061Z,8.70
2023-02-20T09:13:46.586Z,8.80
2023-02-20T09:16:16.741Z,8.70
2023-02-20T09:18:50.374Z,8.70
2023-02-20T09:21:19.859Z,8.80
2023-02-20T09:24:06.462Z,8.80
2023-02-20T09:26:33.193Z,8.80
2023-02-20T09:29:44.922Z,8.80
2023-02-20T09:32:26.248Z,8.80
2023-02-20T09:34:55.185Z,8.80
2023-02-20T09:37:21.951Z,8.70
2023-02-20T09:39:48.826Z,8.70
2023-02-20T09:42:50.279Z,8.80
2023-02-20T09:45:25.474Z,8.80
2023-02-20T09:48:41.822Z,8.90
2023-02-20T09:51:17.604Z,8.90
2023-02-20T09:54:09.520Z,8.90
2023-02-20T09:56:43.023Z,8.90
2023-02-20T09:59:39.667Z,8.90
2023-02-20T10:02:33.523Z,8.90
2023-02-20T10:05:14.026Z,8.90
2023-02-20T10:07:43.404Z,8.90
2023-02-20T10:10:26.907Z,9.00
2023-02-20T10:13:03.659Z,8.90
2023-02-20T10:15:59.486Z,9.00
2023-02-20T10:19:12.979Z,9.00
2023-02-20T10:22:14.303Z,9.10
2023-02-20T10:25:18.261Z,9.10
2023-02-20T10:28:09.626Z,9.10
2023-02-20T10:31:02.108Z,9.20
2023-02-20T10:34:03.897Z,9.10
2023-02-20T10:37:23.619Z,9.20
2023-02-20T10:40:02.326Z,9.10
2023-02-20T10:42:38.535Z,9.10
2023-02-20T10:45:47.201Z,9.10
2023-02-20T10:48:17.885Z,9.00
2023-02-20T10:51:00.821Z,9.00
2023-02-20T10:53:57.428Z,9.10
2023-02-20T10:56:48.161Z,9.10
2023-02-20T10:59:26.504Z,9.10
2023-02-20T11:02:00.523Z,9.10
2023-02-20T11:04:36.028Z,9.10
2023-02-20T11:07:16.202Z,9.10
2023-02-20T11:09:48.417Z,9.10
2023-02-20T11:12:48.154Z,9.10
2023-02-20T11:15:32.460Z,9.20
2023-02-20T11:18:30.372Z,9.20
2023-02-20T11:21:00.129Z,9.10
2023-02-20T11:23:44.939Z,9.10
2023-02-20T11:26:20.578Z,9.20
2023-02-20T11:29:12.869Z,9.20
2023-02-20T11:31:40.578Z,9.20
2023-02-20T11:34:19.978Z,9.30
2023-02-20T11:36:52.462Z,9.30
2023-02-20T11:39:35.597Z,9.30
2023-02-20T11:42:18.773Z,9.40
2023-02-20T11:44:45.749Z,9.40
2023-02-20T11:47:30.506Z,9.40
2023-02-20T11:50:22.887Z,9.30
2023-02-20T11:53:08.088Z,9.30
2023-02-20T11:55:42.602Z,9.30
2023-02-20T11:58:26.482Z,9.30
2023-02-20T12:01:00.334Z,9.30
2023-02-20T12:03:35.963Z,9.30
2023-02-20T12:06:36.138Z,9.40
2023-02-20T12:09:05.270Z,9.40
2023-02-20T12:11:32.113Z,9.50
2023-02-20T12:14:00.987Z,9.40
2023-02-20T12:16:49.654Z,9.40
2023-02-20T12:19:50.363Z,9.40
2023-02-20T12:22:39.090Z,9.40
2023-02-20T12:25:44.906Z,9.40
2023-02-20T12:28:57.639Z,9.40
2023-02-20T12:31:38.018Z,9.50
2023-02-20T12:34:32.771Z,9.50
2023-02-20T12:37:28.441Z,9.50
2023-02-20T12:40:37.320Z,9.50
2023-02-20T12:43:48.486Z,9.50
2023-02-20T12:46:24.841Z,9.50
2023-02-20T12:49:33.581Z,9.50
2023-02-20T12:52:39.097Z,9.50
2023-02-20T12:55:27.017Z,9.60
2023-02-20T12:58:17.720Z,9.60
2023-02-20T13:01:02.562Z,9.60
2023-02-20T13:04:27.600Z,9.50
2023-02-20T13:07:01.621Z,9.60
2023-02-20T13:09:59.332Z,9.60
2023-02-20T13:12:26.133Z,9.60
2023-02-20T13:15:33.675Z,9.70
2023-02-20T13:18:33.034Z,9.60
2023-02-20T13:21:29.177Z,9.60
2023-02-20T13:24:21.706Z,9.60
2023-02-20T13:26:57.601Z,9.70
2023-02-20T13:29:29.523Z,9.60
2023-02-20T13:32:23.178Z,9.60
2023-02-20T13:34:50.549Z,9.70
2023-02-20T13:37:43.327Z,9.60
2023-02-20T13:40:40.081Z,9.60
2023-02-20T13:43:13.065Z,9.60
2023-02-20T13:45:46.533Z,9.60
2023-02-20T13:48:29.296Z,9.60
2023-02-20T13:51:15.033Z,9.60
2023-02-20T13:53:45.618Z,9.60
2023-02-20T13:56:44.235Z,9.60
2023-02-20T13:59:22.259Z,9.60
2023-02-20T14:02:21.499Z,9.70
2023-02-20T14:04:58.646Z,9.60
2023-02-20T14:07:40.343Z,9.50
2023-02-20T14:10:29.779Z,9.50
2023-02-20T14:13:39.467Z,9.50
2023-02-20T14:16:29.765Z,9.50
2023-02-20T14:19:05.329Z,9.50
2023-02-20T14:21:36.483Z,9.50
2023-02-20T14:24:27.899Z,9.50
2023-02-20T14:26:59.381Z,9.50
2023-02-20T14:29:34.202Z,9.40
2023-02-20T14:32:04.547Z,9.40
2023-02-20T14:35:32.171Z,9.40
2023-02-20T14:38:36.218Z,9.40
2023-02-20T14:41:19.077Z,9.50
2023-02-20T14:43:57.155Z,9.50
2023-02-20T14:46:36.279Z,9.40
2023-02-20T14:49:13.534Z,9.50
2023-02-20T14:51:41.126Z,9.50
2023-02-20T14:54:24.760Z,9.50
2023-02-20T14:56:55.241Z,9.30
2023-02-20T14:59:34.026Z,9.40
2023-02-20T15:02:24.194Z,9.40
2023-02-20T15:05:06.973Z,9.50
2023-02-20T15:07:34.818Z,9.50
2023-02-20T15:10:06.394Z,9.40
2023-02-20T15:12:39.234Z,9.40
2023-02-20T15:15:14.814Z,9.30
2023-02-20T15:17:44.460Z,9.40
2023-02-20T15:20:20.395Z,9.40
2023-02-20T15:22:47.292Z,9.40
2023-02-20T15:25:30.393Z,9.30
2023-02-20T15:28:17.261Z,9.30
2023-02-20T15:31:14.854Z,9.30
2023-02-20T15:33:53.382Z,9.30
2023-02-20T15:36:26.254Z,9.30
2023-02-20T15:38:56.214Z,9.30
2023-02-20T15:41:23.986Z,9.30
2023-02-20T15:43:51.799Z,9.30
2023-02-20T15:46:20.134Z,9.30
2023-02-20T15:48:47.500Z,9.30
2023-02-20T15:51:21.699Z,9.30
2023-02-20T15:53:56.114Z,9.30
2023-02-20T15:56:23.032Z,9.40
2023-02-20T15:58:50.975Z,9.30
2023-02-20T16:01:17.757Z,9.30
2023-02-20T16:03:54.745Z,9.40
2023-02-20T16:06:23.359Z,9.30
2023-02-20T16:08:51.367Z,9.30
2023-02-20T16:11:21.501Z,9.30
2023-02-20T16:13:54.874Z,9.30
2023-02-20T16:16:29.920Z,9.30
2023-02-20T16:18:56.955Z,9.30
2023-02-20T16:21:25.257Z,9.30
2023-02-20T16:23:52.926Z,9.30
2023-02-20T16:26:25.628Z,9.30
2023-02-20T16:29:00.818Z,9.30
2023-02-20T16:31:53.807Z,9.30
2023-02-20T16:34:25.693Z,9.30
2023-02-20T16:36:53.444Z,9.30
2023-02-20T16:39:26.848Z,9.30
2023-02-20T16:41:58.170Z,9.30
2023-02-20T16:44:32.227Z,9.30
2023-02-20T16:46:59.162Z,9.40
2023-02-20T16:49:26.840Z,9.30
2023-02-20T16:52:01.250Z,9.30
2023-02-20T16:54:28.743Z,9.30
2023-02-20T16:56:55.908Z,9.30
2023-02-20T16:59:22.816Z,9.30
2023-02-20T17:01:51.623Z,9.20
2023-02-20T17:04:19.794Z,9.20
2023-02-20T17:06:47.320Z,9.20
2023-02-20T17:09:14.227Z,9.20
2023-02-20T17:11:41.026Z,9.20
2023-02-20T17:14:22.029Z,9.20
2023-02-20T17:16:50.645Z,9.20
2023-02-20T17:19:17.727Z,9.20
2023-02-20T17:21:49.631Z,9.20
2023-02-20T17:24:18.810Z,9.20
2023-02-20T17:26:46.834Z,9.20
2023-02-20T17:29:13.965Z,9.20
2023-02-20T17:31:41.650Z,9.20
2023-02-20T17:34:08.687Z,9.20
2023-02-20T17:36:35.480Z,9.20
2023-02-20T17:39:08.560Z,9.20
2023-02-20T17:41:35.356Z,9.20
2023-02-20T17:44:02.153Z,9.20
2023-02-20T17:46:28.931Z,9.20
2023-02-20T17:48:55.754Z,9.20
2023-02-20T17:51:22.569Z,9.20
2023-02-20T17:53:49.406Z,9.10
2023-02-20T17:56:17.217Z,9.20
2023-02-20T17:58:46.661Z,9.20
2023-02-20T18:01:13.472Z,9.10
2023-02-20T18:03:40.282Z,9.10
2023-02-20T18:06:09.769Z,9.00
2023-02-20T18:08:36.573Z,9.00
2023-02-20T18:11:03.382Z,9.00
2023-02-20T18:13:30.197Z,9.00
2023-02-20T18:15:56.958Z,9.10
2023-02-20T18:18:23.810Z,9.10
2023-02-20T18:20:50.666Z,9.00
2023-02-20T18:23:17.518Z,9.00
2023-02-20T18:25:47.379Z,9.00
2023-02-20T18:28:14.128Z,9.00
2023-02-20T18:30:47.933Z,9.00
2023-02-20T18:33:15.241Z,9.00
2023-02-20T18:35:41.937Z,9.00
2023-02-20T18:38:09.924Z,8.90
2023-02-20T18:40:36.827Z,8.90
2023-02-20T18:43:03.607Z,8.90
2023-02-20T18:45:30.463Z,8.90
2023-02-20T18:47:57.372Z,8.90
2023-02-20T18:50:26.604Z,8.90
2023-02-20T18:52:55.854Z,8.80
2023-02-20T18:55:24.214Z,8.80
2023-02-20T18:57:54.289Z,8.80
2023-02-20T19:00:28.530Z,8.90
2023-02-20T19:03:00.906Z,8.80
2023-02-20T19:05:28.352Z,8.70
2023-02-20T19:07:58.866Z,8.80
2023-02-20T19:10:30.730Z,8.80
2023-02-20T19:13:00.467Z,8.80
2023-02-20T19:15:27.359Z,8.80
2023-02-20T19:17:54.622Z,8.80
2023-02-20T19:20:29.297Z,8.80
2023-02-20T19:22:58.740Z,8.80
2023-02-20T19:25:25.737Z,8.80
2023-02-20T19:27:52.769Z,8.70
2023-02-20T19:30:25.640Z,8.80
2023-02-20T19:32:52.445Z,8.80
2023-02-20T19:35:19.221Z,8.80
2023-02-20T19:37:46.056Z,8.80
2023-02-20T19:40:13.099Z,8.80
2023-02-20T19:42:44.046Z,8.80
2023-02-20T19:45:11.033Z,8.70
2023-02-20T19:47:40.940Z,8.80
2023-02-20T19:50:10.154Z,8.70
2023-02-20T19:52:36.980Z,8.70
2023-02-20T19:55:06.888Z,8.70
2023-02-20T19:57:36.256Z,8.70
2023-02-20T20:00:13.140Z,8.70
2023-02-20T20:02:42.253Z,8.80
2023-02-20T20:05:09.101Z,8.70
2023-02-20T20:07:37.758Z,8.80
2023-02-20T20:10:05.835Z,8.80
2023-02-20T20:12:49.972Z,8.70
2023-02-20T20:15:24.147Z,8.70
2023-02-20T20:17:57.449Z,8.70
2023-02-20T20:20:24.933Z,8.70
2023-02-20T20:22:55.404Z,8.80
2023-02-20T20:25:23.675Z,8.70
2023-02-20T20:27:53.150Z,8.70
2023-02-20T20:30:31.785Z,8.70
2023-02-20T20:32:58.905Z,8.80
2023-02-20T20:35:28.686Z,8.70
2023-02-20T20:38:00.204Z,8.70
2023-02-20T20:40:29.024Z,8.70
2023-02-20T20:42:57.949Z,8.70
2023-02-20T20:45:25.144Z,8.70
2023-02-20T20:47:54.330Z,8.70
2023-02-20T20:50:27.629Z,8.70
2023-02-20T20:52:54.757Z,8.80
2023-02-20T20:55:21.558Z,8.70
2023-02-20T20:57:51.473Z,8.80
2023-02-20T21:00:29.473Z,8.80
2023-02-20T21:02:56.317Z,8.70
2023-02-20T21:05:29.031Z,8.70
2023-02-20T21:07:56.752Z,8.70
2023-02-20T21:10:29.317Z,8.70
2023-02-20T21:12:58.244Z,8.80
2023-02-20T21:15:28.818Z,8.80
2023-02-20T21:17:55.705Z,8.80
2023-02-20T21:20:26.019Z,8.80
2023-02-20T21:22:53.853Z,8.70
2023-02-20T21:25:25.182Z,8.80
2023-02-20T21:27:56.858Z,8.90
2023-02-20T21:30:26.851Z,8.80
2023-02-20T21:32:54.708Z,8.80
2023-02-20T21:35:23.555Z,8.80
2023-02-20T21:37:50.462Z,8.80
2023-02-20T21:40:18.985Z,8.70
2023-02-20T21:43:05.069Z,8.80
2023-02-20T21:45:32.940Z,8.90
2023-02-20T21:47:59.734Z,8.80
2023-02-20T21:50:26.605Z,8.80
2023-02-20T21:52:53.710Z,8.80
2023-02-20T21:55:21.177Z,8.70
2023-02-20T21:57:48.129Z,8.80
2023-02-20T22:00:15.398Z,8.70
2023-02-20T22:02:42.182Z,8.70
2023-02-20T22:05:10.574Z,8.70
2023-02-20T22:07:56.296Z,8.70
2023-02-20T22:10:45.065Z,8.70
2023-02-20T22:13:36.110Z,8.80
2023-02-20T22:16:21.703Z,8.70
2023-02-20T22:19:07.162Z,8.70
2023-02-20T22:21:52.621Z,8.70
2023-02-20T22:24:39.181Z,8.80
2023-02-20T22:27:27.565Z,8.80
2023-02-20T22:30:14.450Z,8.80
2023-02-20T22:33:00.059Z,8.80
2023-02-20T22:35:48.395Z,8.80
2023-02-20T22:38:34.141Z,8.80
2023-02-20T22:41:22.517Z,8.70
2023-02-20T22:44:08.176Z,8.70
2023-02-20T22:46:56.706Z,8.80
2023-02-20T22:49:42.256Z,8.80
2023-02-20T22:52:33.303Z,8.80
2023-02-20T22:55:18.753Z,8.80
2023-02-20T22:58:03.959Z,8.80
2023-02-20T23:00:51.525Z,8.80
2023-02-20T23:03:39.583Z,8.70
2023-02-20T23:06:29.760Z,8.70
2023-02-20T23:09:17.709Z,8.70
2023-02-20T23:12:03.080Z,8.70
2023-02-20T23:14:48.638Z,8.80
2023-02-20T23:17:37.412Z,8.80
2023-02-20T23:20:35.259Z,8.80
2023-02-20T23:23:21.437Z,8.80
2023-02-20T23:26:07.297Z,8.80
2023-02-20T23:28:55.350Z,8.70
2023-02-20T23:31:54.374Z,8.80
2023-02-20T23:34:43.293Z,8.80
2023-02-20T23:37:29.310Z,8.80
2023-02-20T23:40:21.240Z,8.90
2023-02-20T23:43:11.634Z,8.80
2023-02-20T23:46:02.809Z,8.80
2023-02-20T23:48:48.245Z,8.80
2023-02-20T23:51:36.816Z,8.80
2023-02-20T23:54:27.893Z,8.80
2023-02-20T23:57:13.492Z,8.80
2023-02-20T23:59:58.890Z,8.80
